Time,TemperatureF,DewpointF,PressureIn,WindDirection,WindDirectionDegrees,WindSpeedMPH,WindSpeedGustMPH,Humidity,HourlyPrecipIn,Conditions,Clouds,dailyrainin,SoftwareType,DateUTC
2013-06-22 00:13:00,64.3,44.2,29.88,SSW,205,1.0,9.0,48,0.00,CLR,,0.00,WeatherDisplay:10.37,2013-06-22 08:13:00,
2013-06-22 00:28:00,63.7,43.6,29.89,WSW,237,3.0,7.0,48,0.00,CLR,,0.00,WeatherDisplay:10.37,2013-06-22 08:28:00,
2013-06-22 00:43:00,63.1,42.5,29.89,SW,231,3.0,9.0,47,0.00,CLR,,0.00,WeatherDisplay:10.37,2013-06-22 08:43:00,
2013-06-22 00:58:00,63.1,42.0,29.89,SSW,205,3.0,15.0,46,0.00,CLR,,0.00,WeatherDisplay:10.37,2013-06-22 08:58:00,
2013-06-22 01:13:00,61.9,44.5,29.90,ESE,105,1.0,8.0,53,0.00,CLR,,0.00,WeatherDisplay:10.37,2013-06-22 09:13:00,
2013-06-22 01:28:00,60.5,43.8,29.89,South,169,3.0,7.0,54,0.00,CLR,,0.00,WeatherDisplay:10.37,2013-06-22 09:28:00,
2013-06-22 01:43:00,59.7,43.5,29.89,South,189,2.0,8.0,55,0.00,CLR,,0.00,WeatherDisplay:10.37,2013-06-22 09:43:00,
2013-06-22 01:58:00,59.1,43.4,29.90,SW,223,2.0,8.0,56,0.00,CLR,,0.00,WeatherDisplay:10.37,2013-06-22 09:58:00,
2013-06-22 02:13:00,58.2,44.0,29.90,SSW,196,0.0,6.0,59,0.00,CLR,,0.00,WeatherDisplay:10.37,2013-06-22 10:13:00,
2013-06-22 02:28:00,57.4,44.5,29.91,SW,222,1.0,5.0,62,0.00,CLR,,0.00,WeatherDisplay:10.37,2013-06-22 10:28:00,
2013-06-22 02:43:00,56.9,44.8,29.91,SSW,201,1.0,5.0,64,0.00,CLR,,0.00,WeatherDisplay:10.37,2013-06-22 10:43:00,
2013-06-22 02:58:00,56.6,46.2,29.91,South,176,2.0,5.0,68,0.00,CLR,,0.00,WeatherDisplay:10.37,2013-06-22 10:58:00,
2013-06-22 03:13:00,56.8,47.1,29.91,South,185,3.0,7.0,70,0.00,CLR,,0.00,WeatherDisplay:10.37,2013-06-22 11:13:00,
2013-06-22 03:28:00,56.9,48.0,29.91,SSW,205,2.0,8.0,72,0.00,CLR,,0.00,WeatherDisplay:10.37,2013-06-22 11:28:00,
2013-06-22 03:43:00,56.8,48.2,29.92,SSW,193,1.0,6.0,73,0.00,CLR,,0.00,WeatherDisplay:10.37,2013-06-22 11:43:00,
2013-06-22 03:58:00,56.6,48.8,29.92,SSE,163,2.0,7.0,75,0.00,CLR,,0.00,WeatherDisplay:10.37,2013-06-22 11:58:00,
2013-06-22 04:13:00,55.8,48.3,29.92,South,183,2.0,6.0,76,0.00,CLR,,0.00,WeatherDisplay:10.37,2013-06-22 12:13:00,
2013-06-22 04:28:00,55.2,48.1,29.92,South,170,0.0,5.0,77,0.00,CLR,,0.00,WeatherDisplay:10.37,2013-06-22 12:28:00,
2013-06-22 04:43:00,54.9,48.2,29.93,WSW,257,0.0,5.0,78,0.00,CLR,,0.00,WeatherDisplay:10.37,2013-06-22 12:43:00,
2013-06-22 04:58:00,54.7,48.0,29.93,SSE,165,1.0,4.0,78,0.00,CLR,,0.00,WeatherDisplay:10.37,2013-06-22 12:58:00,
2013-06-22 05:13:00,54.5,48.1,29.93,SE,137,2.0,5.0,79,0.00,CLR,,0.00,WeatherDisplay:10.37,2013-06-22 13:13:00,
2013-06-22 05:28:00,53.9,47.5,29.93,East,90,0.0,3.0,79,0.00,CLR,,0.00,WeatherDisplay:10.37,2013-06-22 13:28:00,
2013-06-22 05:43:00,53.1,47.1,29.93,ENE,63,0.0,4.0,80,0.00,CLR,,0.00,WeatherDisplay:10.37,2013-06-22 13:43:00,
2013-06-22 05:58:00,52.5,47.1,29.93,East,94,0.0,5.0,82,0.00,CLR,,0.00,WeatherDisplay:10.37,2013-06-22 13:58:00,
2013-06-22 06:13:00,52.6,47.6,29.93,East,79,2.0,5.0,83,0.00,CLR,,0.00,WeatherDisplay:10.37,2013-06-22 14:13:00,
2013-06-22 06:28:00,52.8,48.1,29.93,ENE,77,1.0,6.0,84,0.00,CLR,,0.00,WeatherDisplay:10.37,2013-06-22 14:28:00,
2013-06-22 06:43:00,53.2,48.5,29.93,ENE,66,3.0,6.0,84,0.00,CLR,,0.00,WeatherDisplay:10.37,2013-06-22 14:43:00,
2013-06-22 06:58:00,53.7,49.0,29.93,East,80,0.0,3.0,84,0.00,CLR,,0.00,WeatherDisplay:10.37,2013-06-22 14:58:00,
2013-06-22 07:13:00,54.5,49.8,29.93,East,85,0.0,0.0,84,0.00,CLR,,0.00,WeatherDisplay:10.37,2013-06-22 15:13:00,
2013-06-22 07:28:00,55.2,49.8,29.93,East,85,0.0,0.0,82,0.00,CLR,,0.00,WeatherDisplay:10.37,2013-06-22 15:28:00,
2013-06-22 07:43:00,56.1,50.3,29.93,East,94,1.0,2.0,81,0.00,CLR,,0.00,WeatherDisplay:10.37,2013-06-22 15:43:00,
2013-06-22 07:58:00,56.1,50.0,29.93,West,267,0.0,5.0,80,0.00,CLR,,0.00,WeatherDisplay:10.37,2013-06-22 15:58:00,
2013-06-22 08:13:00,56.3,50.2,29.93,SW,235,0.0,4.0,80,0.00,CLR,,0.00,WeatherDisplay:10.37,2013-06-22 16:13:00,
2013-06-22 08:28:00,56.6,50.5,29.93,West,271,0.0,4.0,80,0.00,CLR,,0.00,WeatherDisplay:10.37,2013-06-22 16:28:00,
2013-06-22 08:43:00,57.1,51.0,29.93,WSW,248,0.0,3.0,80,0.00,CLR,,0.00,WeatherDisplay:10.37,2013-06-22 16:43:00,
2013-06-22 08:58:00,57.8,51.3,29.93,SW,228,0.0,3.0,79,0.00,CLR,,0.00,WeatherDisplay:10.37,2013-06-22 16:58:00,
2013-06-22 09:13:00,58.4,51.6,29.93,SW,226,2.0,6.0,78,0.00,CLR,,0.00,WeatherDisplay:10.37,2013-06-22 17:13:00,
2013-06-22 09:28:00,59.3,51.7,29.93,WSW,246,1.0,7.0,76,0.00,CLR,,0.00,WeatherDisplay:10.37,2013-06-22 17:28:00,
2013-06-22 09:43:00,59.9,51.9,29.93,South,181,0.0,7.0,75,0.00,CLR,,0.00,WeatherDisplay:10.37,2013-06-22 17:43:00,
2013-06-22 09:58:00,60.5,52.2,29.92,WNW,284,3.0,7.0,74,0.00,CLR,,0.00,WeatherDisplay:10.37,2013-06-22 17:58:00,
2013-06-22 10:13:00,60.9,52.2,29.92,West,270,0.0,7.0,73,0.00,CLR,,0.00,WeatherDisplay:10.37,2013-06-22 18:13:00,
2013-06-22 10:28:00,61.1,51.6,29.92,WSW,248,2.0,7.0,71,0.00,CLR,,0.00,WeatherDisplay:10.37,2013-06-22 18:28:00,
2013-06-22 10:43:00,61.6,50.9,29.91,SW,233,2.0,6.0,68,0.00,CLR,,0.00,WeatherDisplay:10.37,2013-06-22 18:43:00,
2013-06-22 10:58:00,62.1,48.5,29.91,WSW,257,2.0,7.0,61,0.00,CLR,,0.00,WeatherDisplay:10.37,2013-06-22 18:58:00,
2013-06-22 11:13:00,62.7,48.6,29.91,SSW,201,5.0,10.0,60,0.00,CLR,,0.00,WeatherDisplay:10.37,2013-06-22 19:13:00,
2013-06-22 11:28:00,63.7,48.2,29.91,SE,142,3.0,8.0,57,0.00,CLR,,0.00,WeatherDisplay:10.37,2013-06-22 19:28:00,
2013-06-22 11:43:00,63.9,47.4,29.90,WSW,257,2.0,8.0,55,0.00,CLR,,0.00,WeatherDisplay:10.37,2013-06-22 19:43:00,
2013-06-22 11:58:00,64.1,47.1,29.90,SE,143,0.0,6.0,54,0.00,CLR,,0.00,WeatherDisplay:10.37,2013-06-22 19:58:00,
2013-06-22 12:13:00,64.9,47.3,29.89,SE,140,2.0,7.0,53,0.00,CLR,,0.00,WeatherDisplay:10.37,2013-06-22 20:13:00,
2013-06-22 12:28:00,65.6,47.0,29.89,SW,218,2.0,6.0,51,0.00,CLR,,0.00,WeatherDisplay:10.37,2013-06-22 20:28:00,
2013-06-22 12:43:00,65.8,46.7,29.88,WSW,254,5.0,10.0,50,0.00,CLR,,0.00,WeatherDisplay:10.37,2013-06-22 20:43:00,
2013-06-22 12:58:00,65.3,46.7,29.88,WNW,287,5.0,9.0,51,0.00,CLR,,0.00,WeatherDisplay:10.37,2013-06-22 20:58:00,
2013-06-22 13:13:00,65.9,47.2,29.88,West,270,3.0,9.0,51,0.00,CLR,,0.00,WeatherDisplay:10.37,2013-06-22 21:13:00,
2013-06-22 13:28:00,65.8,46.6,29.87,SW,235,2.0,9.0,50,0.00,CLR,,0.00,WeatherDisplay:10.37,2013-06-22 21:28:00,
2013-06-22 13:43:00,66.4,47.2,29.87,ESE,117,1.0,12.0,50,0.00,CLR,,0.00,WeatherDisplay:10.37,2013-06-22 21:43:00,
2013-06-22 13:58:00,68.0,48.1,29.86,East,101,1.0,9.0,49,0.00,CLR,,0.00,WeatherDisplay:10.37,2013-06-22 21:58:00,
2013-06-22 14:13:00,67.9,47.5,29.86,WSW,251,6.0,8.0,48,0.00,CLR,,0.00,WeatherDisplay:10.37,2013-06-22 22:13:00,
2013-06-22 14:28:00,67.5,46.5,29.85,NW,321,1.0,9.0,47,0.00,CLR,,0.00,WeatherDisplay:10.37,2013-06-22 22:28:00,
2013-06-22 14:43:00,68.1,47.1,29.84,WNW,302,6.0,10.0,47,0.00,CLR,,0.00,WeatherDisplay:10.37,2013-06-22 22:43:00,
2013-06-22 14:58:00,68.0,47.0,29.84,West,278,3.0,10.0,47,0.00,CLR,,0.00,WeatherDisplay:10.37,2013-06-22 22:58:00,
2013-06-22 15:13:00,68.5,47.5,29.84,WSW,257,1.0,9.0,47,0.00,CLR,,0.00,WeatherDisplay:10.37,2013-06-22 23:13:00,
2013-06-22 15:28:00,69.7,47.4,29.83,WSW,252,2.0,8.0,45,0.00,CLR,,0.00,WeatherDisplay:10.37,2013-06-22 23:28:00,
2013-06-22 15:43:00,71.3,47.6,29.82,WNW,294,2.0,10.0,43,0.00,CLR,,0.00,WeatherDisplay:10.37,2013-06-22 23:43:00,
2013-06-22 15:58:00,71.4,47.7,29.81,SSW,206,2.0,8.0,43,0.00,CLR,,0.00,WeatherDisplay:10.37,2013-06-22 23:58:00,
2013-06-22 16:13:00,71.2,46.9,29.81,WNW,302,1.0,9.0,42,0.00,CLR,,0.00,WeatherDisplay:10.37,2013-06-23 00:13:00,
2013-06-22 16:28:00,71.9,47.6,29.81,SSW,200,5.0,10.0,42,0.00,CLR,,0.00,WeatherDisplay:10.37,2013-06-23 00:28:00,
2013-06-22 16:43:00,72.8,47.7,29.80,SSW,194,3.0,8.0,41,0.00,CLR,,0.00,WeatherDisplay:10.37,2013-06-23 00:43:00,
2013-06-22 16:58:00,74.0,48.1,29.79,SSE,152,2.0,9.0,40,0.00,CLR,,0.00,WeatherDisplay:10.37,2013-06-23 00:58:00,
2013-06-22 17:13:00,74.0,47.5,29.79,West,267,3.0,7.0,39,0.00,CLR,,0.00,WeatherDisplay:10.37,2013-06-23 01:13:00,
2013-06-22 17:28:00,73.9,47.4,29.78,SW,218,1.0,9.0,39,0.00,CLR,,0.00,WeatherDisplay:10.37,2013-06-23 01:28:00,
2013-06-22 17:43:00,74.7,47.4,29.78,South,178,5.0,8.0,38,0.00,CLR,,0.00,WeatherDisplay:10.37,2013-06-23 01:43:00,
2013-06-22 17:58:00,75.0,47.0,29.77,WSW,238,0.0,7.0,37,0.00,CLR,,0.00,WeatherDisplay:10.37,2013-06-23 01:58:00,
2013-06-22 18:13:00,75.2,47.2,29.77,SSE,148,3.0,7.0,37,0.00,CLR,,0.00,WeatherDisplay:10.37,2013-06-23 02:13:00,
2013-06-22 18:28:00,76.1,46.5,29.76,SW,225,6.0,9.0,35,0.00,CLR,,0.00,WeatherDisplay:10.37,2013-06-23 02:28:00,
2013-06-22 18:43:00,75.7,47.6,29.75,South,190,3.0,6.0,37,0.00,CLR,,0.00,WeatherDisplay:10.37,2013-06-23 02:43:00,
2013-06-22 18:59:00,76.3,47.4,29.75,South,182,3.0,8.0,36,0.00,CLR,,0.00,WeatherDisplay:10.37,2013-06-23 02:59:00,
2013-06-22 19:13:00,76.5,47.5,29.74,South,188,2.0,6.0,36,0.00,CLR,,0.00,WeatherDisplay:10.37,2013-06-23 03:13:00,
2013-06-22 19:28:00,76.9,47.9,29.73,WSW,237,3.0,8.0,36,0.00,CLR,,0.00,WeatherDisplay:10.37,2013-06-23 03:28:00,
2013-06-22 19:43:00,76.7,47.0,29.73,NE,54,0.0,3.0,35,0.00,CLR,,0.00,WeatherDisplay:10.37,2013-06-23 03:43:00,
2013-06-22 19:58:00,75.8,47.7,29.73,West,276,1.0,3.0,37,0.00,CLR,,0.00,WeatherDisplay:10.37,2013-06-23 03:58:00,
2013-06-22 20:13:00,76.9,47.9,29.72,ENE,60,0.0,4.0,36,0.00,CLR,,0.00,WeatherDisplay:10.37,2013-06-23 04:13:00,
2013-06-22 20:28:00,76.0,47.1,29.72,NE,41,0.0,2.0,36,0.00,CLR,,0.00,WeatherDisplay:10.37,2013-06-23 04:28:00,
2013-06-22 20:43:00,75.1,48.4,29.72,ENE,57,2.0,5.0,39,0.00,CLR,,0.00,WeatherDisplay:10.37,2013-06-23 04:43:00,
2013-06-22 20:58:00,74.6,48.7,29.72,NE,52,0.0,2.0,40,0.00,CLR,,0.00,WeatherDisplay:10.37,2013-06-23 04:58:00,
2013-06-22 21:13:00,75.5,48.8,29.71,NE,52,0.0,0.0,39,0.00,CLR,,0.00,WeatherDisplay:10.37,2013-06-23 05:13:00,
2013-06-22 21:28:00,75.2,49.2,29.71,NE,52,0.0,0.0,40,0.00,CLR,,0.00,WeatherDisplay:10.37,2013-06-23 05:28:00,
2013-06-22 21:43:00,75.0,49.0,29.71,East,93,0.0,1.0,40,0.00,CLR,,0.00,WeatherDisplay:10.37,2013-06-23 05:43:00,
2013-06-22 21:58:00,74.0,49.4,29.71,NE,44,0.0,2.0,42,0.00,CLR,,0.00,WeatherDisplay:10.37,2013-06-23 05:58:00,
2013-06-22 22:13:00,72.7,48.3,29.71,NE,34,0.0,3.0,42,0.00,CLR,,0.00,WeatherDisplay:10.37,2013-06-23 06:13:00,
2013-06-22 22:28:00,71.9,49.4,29.71,NE,34,0.0,0.0,45,0.00,CLR,,0.00,WeatherDisplay:10.37,2013-06-23 06:28:00,
2013-06-22 22:43:00,72.0,49.5,29.71,NE,51,0.0,3.0,45,0.00,CLR,,0.00,WeatherDisplay:10.37,2013-06-23 06:43:00,
2013-06-22 22:58:00,71.8,48.7,29.71,NE,48,0.0,2.0,44,0.00,CLR,,0.00,WeatherDisplay:10.37,2013-06-23 06:58:00,
2013-06-22 23:13:00,71.2,47.6,29.71,ENE,61,0.0,0.0,43,0.00,CLR,,0.00,WeatherDisplay:10.37,2013-06-23 07:13:00,
2013-06-22 23:28:00,70.3,47.4,29.71,NE,56,1.0,2.0,44,0.00,CLR,,0.00,WeatherDisplay:10.37,2013-06-23 07:28:00,
2013-06-22 23:43:00,69.5,46.6,29.71,NNW,344,0.0,1.0,44,0.00,CLR,,0.00,WeatherDisplay:10.37,2013-06-23 07:43:00,
2013-06-22 23:58:00,69.1,46.3,29.72,NE,40,0.0,2.0,44,0.00,CLR,,0.00,WeatherDisplay:10.37,2013-06-23 07:58:00,